createdAt,value
2023-03-08T00:01:30.080Z,11.73
2023-03-08T00:04:00.078Z,11.83
2023-03-08T00:06:28.974Z,11.40
2023-03-08T00:08:58.328Z,11.50
2023-03-08T00:11:27.502Z,16.17
2023-03-08T00:13:56.374Z,12.53
2023-03-08T00:16:25.383Z,11.47
2023-03-08T00:18:53.706Z,11.47
2023-03-08T00:21:23.374Z,11.60
2023-03-08T00:23:54.215Z,11.20
2023-03-08T00:26:22.580Z,11.30
2023-03-08T00:28:50.946Z,11.00
2023-03-08T00:31:19.422Z,10.90
2023-03-08T00:33:47.806Z,11.47
2023-03-08T00:36:19.352Z,11.33
2023-03-08T00:38:51.187Z,10.90
2023-03-08T00:41:19.856Z,10.90
2023-03-08T00:43:48.289Z,10.90
2023-03-08T00:46:17.136Z,10.57
2023-03-08T00:48:46.696Z,10.77
2023-03-08T00:51:19.386Z,10.83
2023-03-08T00:53:50.689Z,10.90
2023-03-08T00:56:19.581Z,11.77
2023-03-08T00:58:48.028Z,10.60
2023-03-08T01:01:19.410Z,10.80
2023-03-08T01:03:50.355Z,11.00
2023-03-08T01:06:18.845Z,10.90
2023-03-08T01:08:47.268Z,10.80
2023-03-08T01:11:21.305Z,11.37
2023-03-08T01:13:50.493Z,11.03
2023-03-08T01:16:22.660Z,10.73
2023-03-08T01:18:53.617Z,10.60
2023-03-08T01:21:23.248Z,11.00
2023-03-08T01:23:52.159Z,11.10
2023-03-08T01:26:24.401Z,10.90
2023-03-08T01:28:57.497Z,11.00
2023-03-08T01:31:28.704Z,10.77
2023-03-08T01:33:58.901Z,10.90
2023-03-08T01:36:29.324Z,11.17
2023-03-08T01:38:58.410Z,10.90
2023-03-08T01:41:30.577Z,10.77
2023-03-08T01:43:59.173Z,11.33
2023-03-08T01:46:30.194Z,10.70
2023-03-08T01:49:09.186Z,11.10
2023-03-08T01:51:41.246Z,10.70
2023-03-08T01:54:14.315Z,10.40
2023-03-08T01:56:46.233Z,11.10
2023-03-08T01:59:15.610Z,10.50
2023-03-08T02:01:44.644Z,11.10
2023-03-08T02:04:13.431Z,11.27
2023-03-08T02:06:43.292Z,10.60
2023-03-08T02:09:12.005Z,10.97
2023-03-08T02:11:43.485Z,10.93
2023-03-08T02:14:12.192Z,11.27
2023-03-08T02:16:44.368Z,10.90
2023-03-08T02:19:18.551Z,10.70
2023-03-08T02:21:47.801Z,11.63
2023-03-08T02:24:23.582Z,11.23
2023-03-08T02:27:02.172Z,11.00
2023-03-08T02:29:30.710Z,11.67
2023-03-08T02:31:59.021Z,10.90
2023-03-08T02:34:27.365Z,11.37
2023-03-08T02:36:55.740Z,11.03
2023-03-08T02:39:25.498Z,11.33
2023-03-08T02:41:56.724Z,10.80
2023-03-08T02:44:25.338Z,11.10
2023-03-08T02:46:54.810Z,11.27
2023-03-08T02:49:23.150Z,11.10
2023-03-08T02:51:53.104Z,10.90
2023-03-08T02:54:22.689Z,10.60
2023-03-08T02:56:52.345Z,10.80
2023-03-08T02:59:22.780Z,11.33
2023-03-08T03:01:52.509Z,11.17
2023-03-08T03:04:20.862Z,11.40
2023-03-08T03:06:49.194Z,10.63
2023-03-08T03:09:17.795Z,11.03
2023-03-08T03:11:46.491Z,10.40
2023-03-08T03:14:16.204Z,10.93
2023-03-08T03:16:46.296Z,10.83
2023-03-08T03:19:14.840Z,10.80
2023-03-08T03:21:43.444Z,11.07
2023-03-08T03:24:11.959Z,11.20
2023-03-08T03:26:52.463Z,11.00
2023-03-08T03:29:23.843Z,11.03
2023-03-08T03:32:00.839Z,11.27
2023-03-08T03:34:29.870Z,11.13
2023-03-08T03:36:58.275Z,10.73
2023-03-08T03:39:27.195Z,11.13
2023-03-08T03:41:55.568Z,10.30
2023-03-08T03:44:25.329Z,10.40
2023-03-08T03:46:53.683Z,10.43
2023-03-08T03:49:26.451Z,11.13
2023-03-08T03:51:54.757Z,10.97
2023-03-08T03:54:27.671Z,11.57
2023-03-08T03:57:00.378Z,10.63
2023-03-08T03:59:35.082Z,11.47
2023-03-08T04:02:04.250Z,11.33
2023-03-08T04:04:38.211Z,11.03
2023-03-08T04:07:06.656Z,11.67
2023-03-08T04:09:40.718Z,11.07
2023-03-08T04:12:16.074Z,11.07
2023-03-08T04:14:46.815Z,11.47
2023-03-08T04:17:15.952Z,11.10
2023-03-08T04:19:50.378Z,10.60
2023-03-08T04:22:19.922Z,11.23
2023-03-08T04:25:23.752Z,11.20
2023-03-08T04:27:57.769Z,10.50
2023-03-08T04:30:29.854Z,10.50
2023-03-08T04:32:59.664Z,10.97
2023-03-08T04:35:35.721Z,10.30
2023-03-08T04:38:05.084Z,10.80
2023-03-08T04:40:53.817Z,11.03
2023-03-08T04:43:23.158Z,10.80
2023-03-08T04:45:53.656Z,11.30
2023-03-08T04:48:22.112Z,10.70
2023-03-08T04:50:55.323Z,10.87
2023-03-08T04:53:25.700Z,10.90
2023-03-08T04:55:55.480Z,11.00
2023-03-08T04:58:24.556Z,10.80
2023-03-08T05:00:54.290Z,10.87
2023-03-08T05:03:22.880Z,11.20
2023-03-08T05:05:53.941Z,12.17
2023-03-08T05:08:23.552Z,11.73
2023-03-08T05:11:00.796Z,11.30
2023-03-08T05:13:35.296Z,11.50
2023-03-08T05:16:07.571Z,11.80
2023-03-08T05:18:36.223Z,11.17
2023-03-08T05:21:07.313Z,11.30
2023-03-08T05:23:36.947Z,11.83
2023-03-08T05:26:08.025Z,10.97
2023-03-08T05:28:38.149Z,12.27
2023-03-08T05:31:11.609Z,10.70
2023-03-08T05:33:41.293Z,11.40
2023-03-08T05:36:11.924Z,11.23
2023-03-08T05:38:40.675Z,11.60
2023-03-08T05:41:15.477Z,11.00
2023-03-08T05:43:48.447Z,11.43
2023-03-08T05:46:20.623Z,11.10
2023-03-08T05:48:50.249Z,11.30
2023-03-08T05:51:21.149Z,10.90
2023-03-08T05:53:49.612Z,11.70
2023-03-08T05:56:21.391Z,11.63
2023-03-08T05:58:56.508Z,11.30
2023-03-08T06:01:30.284Z,11.10
2023-03-08T06:04:07.404Z,11.87
2023-03-08T06:06:39.235Z,11.77
2023-03-08T06:09:08.084Z,10.80
2023-03-08T06:11:40.486Z,11.27
2023-03-08T06:14:09.040Z,11.20
2023-03-08T06:16:39.433Z,11.27
2023-03-08T06:19:08.263Z,11.67
2023-03-08T06:21:38.710Z,11.23
2023-03-08T06:24:07.788Z,11.20
2023-03-08T06:26:37.014Z,11.30
2023-03-08T06:29:05.620Z,11.20
2023-03-08T06:31:34.898Z,11.20
2023-03-08T06:34:07.095Z,11.30
2023-03-08T06:36:35.915Z,12.10
2023-03-08T06:39:04.700Z,11.30
2023-03-08T06:41:33.463Z,11.17
2023-03-08T06:44:03.892Z,11.53
2023-03-08T06:46:32.271Z,11.13
2023-03-08T06:49:03.221Z,11.40
2023-03-08T06:51:33.090Z,11.30
2023-03-08T06:54:01.512Z,11.70
2023-03-08T06:56:30.265Z,11.83
2023-03-08T06:58:58.560Z,11.33
2023-03-08T07:01:27.057Z,11.03
2023-03-08T07:03:55.552Z,11.57
2023-03-08T07:06:24.144Z,11.60
2023-03-08T07:08:54.257Z,12.27
2023-03-08T07:11:22.546Z,11.50
2023-03-08T07:13:50.833Z,11.37
2023-03-08T07:16:19.575Z,11.53
2023-03-08T07:18:47.805Z,11.33
2023-03-08T07:21:16.075Z,11.97
2023-03-08T07:23:44.443Z,11.40
2023-03-08T07:26:14.129Z,11.13
2023-03-08T07:28:42.443Z,10.97
2023-03-08T07:31:13.139Z,11.33
2023-03-08T07:33:41.439Z,10.90
2023-03-08T07:36:10.004Z,11.50
2023-03-08T07:38:38.358Z,11.03
2023-03-08T07:41:07.040Z,12.27
2023-03-08T07:43:36.648Z,11.47
2023-03-08T07:46:10.778Z,11.07
2023-03-08T07:48:39.085Z,11.93
2023-03-08T07:51:10.360Z,11.70
2023-03-08T07:53:39.306Z,11.57
2023-03-08T07:56:08.747Z,10.70
2023-03-08T07:58:38.696Z,11.20
2023-03-08T08:01:10.701Z,11.27
2023-03-08T08:03:39.496Z,10.90
2023-03-08T08:06:09.026Z,10.80
2023-03-08T08:08:37.353Z,11.07
2023-03-08T08:11:13.210Z,11.37
2023-03-08T08:13:43.359Z,11.40
2023-03-08T08:16:12.071Z,12.20
2023-03-08T08:18:40.634Z,12.20
2023-03-08T08:21:11.208Z,13.00
2023-03-08T08:23:40.776Z,13.17
2023-03-08T08:26:12.560Z,12.87
2023-03-08T08:28:44.791Z,13.90
2023-03-08T08:31:17.000Z,12.43
2023-03-08T08:33:45.383Z,11.77
2023-03-08T08:36:17.276Z,12.40
2023-03-08T08:38:46.183Z,12.20
2023-03-08T08:41:16.762Z,12.33
2023-03-08T08:43:47.449Z,12.30
2023-03-08T08:46:17.344Z,12.47
2023-03-08T08:48:45.658Z,11.80
2023-03-08T08:51:15.151Z,12.37
2023-03-08T08:53:44.295Z,12.17
2023-03-08T08:56:26.170Z,11.70
2023-03-08T08:58:58.044Z,12.10
2023-03-08T09:01:30.098Z,12.00
2023-03-08T09:03:59.404Z,11.23
2023-03-08T09:06:29.703Z,12.27
2023-03-08T09:08:59.813Z,12.20
2023-03-08T09:11:29.357Z,13.03
2023-03-08T09:13:59.143Z,12.50
2023-03-08T09:16:30.223Z,12.43
2023-03-08T09:19:00.157Z,13.30
2023-03-08T09:21:30.186Z,12.47
2023-03-08T09:24:02.922Z,13.93
2023-03-08T09:26:32.265Z,13.13
2023-03-08T09:29:05.404Z,13.87
2023-03-08T09:31:35.283Z,14.33
2023-03-08T09:34:08.850Z,13.67
2023-03-08T09:36:39.519Z,14.50
2023-03-08T09:39:08.955Z,13.50
2023-03-08T09:41:54.481Z,13.33
2023-03-08T09:44:58.797Z,13.90
2023-03-08T09:47:35.809Z,13.70
2023-03-08T09:50:30.787Z,12.47
2023-03-08T09:53:10.550Z,13.03
2023-03-08T09:55:49.606Z,12.10
2023-03-08T09:58:29.660Z,12.60
2023-03-08T10:01:07.373Z,11.70
2023-03-08T10:04:03.781Z,12.00
2023-03-08T10:06:37.009Z,12.80
2023-03-08T10:09:21.654Z,17.90
2023-03-08T10:11:55.704Z,13.93
2023-03-08T10:14:31.003Z,13.47
2023-03-08T10:17:05.787Z,13.53
2023-03-08T10:19:41.266Z,13.00
2023-03-08T10:22:16.744Z,13.03
2023-03-08T10:24:53.111Z,12.60
2023-03-08T10:27:25.600Z,13.20
2023-03-08T10:29:57.242Z,14.10
2023-03-08T10:32:28.450Z,12.40
2023-03-08T10:35:05.675Z,12.70
2023-03-08T10:37:35.151Z,12.90
2023-03-08T10:40:09.825Z,13.83
2023-03-08T10:42:38.685Z,12.93
2023-03-08T10:45:16.920Z,12.53
2023-03-08T10:47:56.867Z,12.43
2023-03-08T10:50:27.551Z,13.33
2023-03-08T10:52:56.185Z,12.77
2023-03-08T10:55:28.307Z,12.00
2023-03-08T10:57:59.739Z,13.27
2023-03-08T11:00:37.067Z,13.20
2023-03-08T11:03:20.948Z,12.07
2023-03-08T11:05:57.818Z,12.40
2023-03-08T11:08:30.368Z,11.80
2023-03-08T11:11:05.346Z,11.97
2023-03-08T11:13:36.612Z,12.57
2023-03-08T11:16:39.259Z,12.73
2023-03-08T11:19:23.781Z,12.77
2023-03-08T11:22:04.965Z,12.57
2023-03-08T11:24:53.211Z,12.73
2023-03-08T11:27:39.196Z,12.53
2023-03-08T11:30:22.277Z,12.10
2023-03-08T11:33:19.503Z,12.03
2023-03-08T11:35:57.450Z,12.80
2023-03-08T11:38:28.533Z,12.50
2023-03-08T11:41:08.082Z,12.20
2023-03-08T11:43:51.862Z,12.20
2023-03-08T11:46:25.373Z,11.93
2023-03-08T11:49:18.308Z,12.30
2023-03-08T11:51:56.627Z,13.07
2023-03-08T11:54:56.959Z,12.53
2023-03-08T11:57:30.060Z,12.17
2023-03-08T12:00:10.338Z,13.03
2023-03-08T12:02:46.735Z,12.80
2023-03-08T12:05:27.504Z,12.60
2023-03-08T12:08:02.460Z,12.23
2023-03-08T12:10:38.353Z,12.37
2023-03-08T12:13:16.884Z,12.80
2023-03-08T12:15:52.180Z,13.10
2023-03-08T12:18:29.977Z,13.03
2023-03-08T12:21:09.818Z,12.73
2023-03-08T12:23:47.738Z,12.70
2023-03-08T12:26:22.613Z,12.97
2023-03-08T12:28:55.900Z,12.43
2023-03-08T12:31:29.922Z,12.67
2023-03-08T12:34:00.210Z,12.60
2023-03-08T12:36:39.647Z,11.70
2023-03-08T12:39:26.527Z,12.10
2023-03-08T12:42:01.083Z,12.33
2023-03-08T12:44:31.737Z,12.57
2023-03-08T12:47:04.331Z,12.27
2023-03-08T12:49:36.501Z,13.10
2023-03-08T12:52:07.856Z,12.97
2023-03-08T12:54:37.769Z,12.10
2023-03-08T12:57:20.611Z,12.60
2023-03-08T12:59:49.242Z,12.43
2023-03-08T13:02:30.700Z,12.63
2023-03-08T13:05:20.171Z,11.73
2023-03-08T13:08:16.627Z,12.30
2023-03-08T13:11:02.119Z,12.30
2023-03-08T13:13:41.350Z,12.50
2023-03-08T13:16:23.975Z,11.97
2023-03-08T13:19:03.285Z,12.13
2023-03-08T13:21:35.680Z,11.13
2023-03-08T13:24:14.624Z,12.17
2023-03-08T13:27:10.794Z,11.73
2023-03-08T13:29:39.323Z,11.83
2023-03-08T13:32:14.316Z,11.10
2023-03-08T13:34:45.536Z,11.90
2023-03-08T13:37:23.122Z,12.07
2023-03-08T13:39:55.746Z,11.70
2023-03-08T13:42:27.310Z,12.10
2023-03-08T13:45:09.077Z,11.23
2023-03-08T13:47:40.963Z,11.20
2023-03-08T13:50:19.247Z,11.50
2023-03-08T13:52:48.084Z,11.40
2023-03-08T13:55:22.866Z,11.10
2023-03-08T13:57:55.429Z,11.40
2023-03-08T14:00:29.750Z,10.67
2023-03-08T14:02:59.125Z,11.40
2023-03-08T14:05:30.144Z,11.20
2023-03-08T14:08:01.846Z,12.17
2023-03-08T14:10:40.795Z,11.57
2023-03-08T14:13:21.012Z,10.97
2023-03-08T14:15:53.073Z,11.10
2023-03-08T14:18:25.163Z,11.20
2023-03-08T14:21:07.327Z,12.03
2023-03-08T14:23:42.052Z,11.47
2023-03-08T14:26:27.271Z,11.67
2023-03-08T14:29:22.155Z,11.20
2023-03-08T14:31:57.184Z,11.33
2023-03-08T14:34:33.749Z,11.23
2023-03-08T14:37:07.899Z,11.87
2023-03-08T14:39:39.148Z,11.50
2023-03-08T14:42:18.031Z,11.03
2023-03-08T14:44:54.599Z,11.10
2023-03-08T14:47:25.856Z,11.03
2023-03-08T14:50:01.139Z,11.30
2023-03-08T14:52:30.418Z,11.30
2023-03-08T14:54:58.934Z,11.07
2023-03-08T14:57:29.300Z,11.10
2023-03-08T15:00:14.209Z,11.37
2023-03-08T15:02:43.313Z,11.47
2023-03-08T15:05:25.505Z,11.77
2023-03-08T15:07:59.355Z,11.23
2023-03-08T15:10:32.503Z,11.60
2023-03-08T15:13:01.800Z,11.70
2023-03-08T15:15:31.482Z,11.27
2023-03-08T15:17:59.756Z,11.90
2023-03-08T15:20:28.215Z,11.70
2023-03-08T15:23:01.238Z,12.40
2023-03-08T15:25:31.812Z,11.80
2023-03-08T15:28:00.157Z,11.20
2023-03-08T15:30:32.179Z,11.43
2023-03-08T15:33:02.185Z,11.50
2023-03-08T15:35:31.493Z,11.20
2023-03-08T15:37:59.895Z,11.40
2023-03-08T15:40:31.758Z,10.70
2023-03-08T15:43:01.063Z,11.00
2023-03-08T15:45:29.710Z,11.03
2023-03-08T15:48:01.747Z,11.17
2023-03-08T15:50:31.428Z,11.07
2023-03-08T15:53:00.791Z,11.70
2023-03-08T15:55:31.673Z,11.27
2023-03-08T15:58:00.158Z,11.20
2023-03-08T16:00:29.143Z,10.87
2023-03-08T16:02:59.148Z,10.50
2023-03-08T16:05:29.115Z,11.23
2023-03-08T16:07:59.510Z,11.17
2023-03-08T16:10:30.065Z,10.93
2023-03-08T16:12:58.593Z,11.47
2023-03-08T16:15:27.086Z,10.87
2023-03-08T16:17:55.459Z,10.97
2023-03-08T16:20:26.027Z,11.60
2023-03-08T16:22:55.612Z,10.70
2023-03-08T16:25:24.061Z,11.43
2023-03-08T16:27:53.149Z,10.80
2023-03-08T16:30:21.911Z,10.90
2023-03-08T16:32:53.132Z,11.60
2023-03-08T16:35:21.845Z,11.23
2023-03-08T16:37:53.885Z,11.10
2023-03-08T16:40:22.329Z,11.20
2023-03-08T16:42:52.475Z,11.10
2023-03-08T16:45:21.043Z,16.30
2023-03-08T16:47:49.402Z,10.53
2023-03-08T16:50:18.486Z,10.00
2023-03-08T16:52:47.150Z,10.63
2023-03-08T16:55:17.056Z,10.93
2023-03-08T16:57:45.328Z,10.67
2023-03-08T17:00:15.649Z,10.63
2023-03-08T17:02:45.481Z,10.77
2023-03-08T17:05:14.026Z,11.27
2023-03-08T17:07:42.302Z,10.80
2023-03-08T17:10:12.377Z,12.03
2023-03-08T17:12:42.147Z,11.13
2023-03-08T17:15:11.964Z,10.70
2023-03-08T17:17:40.465Z,11.37
2023-03-08T17:20:11.204Z,11.40
2023-03-08T17:22:39.616Z,11.07
2023-03-08T17:25:09.650Z,10.90
2023-03-08T17:27:37.965Z,11.70
2023-03-08T17:30:14.123Z,11.27
2023-03-08T17:32:42.454Z,10.77
2023-03-08T17:35:11.379Z,11.47
2023-03-08T17:37:41.650Z,11.70
2023-03-08T17:40:13.270Z,10.80
2023-03-08T17:42:42.000Z,11.40
2023-03-08T17:45:12.854Z,11.57
2023-03-08T17:47:41.558Z,11.30
2023-03-08T17:50:13.025Z,10.83
2023-03-08T17:52:42.149Z,11.67
2023-03-08T17:55:12.022Z,11.00
2023-03-08T17:57:40.419Z,12.10
2023-03-08T18:00:12.677Z,12.63
2023-03-08T18:02:41.131Z,11.70
2023-03-08T18:05:11.091Z,12.37
2023-03-08T18:07:41.635Z,15.57
2023-03-08T18:10:12.825Z,19.23
2023-03-08T18:12:41.132Z,20.87
2023-03-08T18:15:13.264Z,21.37
2023-03-08T18:17:41.642Z,17.77
2023-03-08T18:20:12.431Z,16.43
2023-03-08T18:22:41.830Z,15.57
2023-03-08T18:25:11.204Z,14.40
2023-03-08T18:27:40.320Z,13.33
2023-03-08T18:30:12.296Z,13.00
2023-03-08T18:32:40.927Z,12.70
2023-03-08T18:35:10.028Z,12.10
2023-03-08T18:37:38.316Z,15.80
2023-03-08T18:40:11.897Z,21.20
2023-03-08T18:42:40.293Z,14.80
2023-03-08T18:45:12.021Z,12.80
2023-03-08T18:47:40.552Z,12.27
2023-03-08T18:50:11.049Z,11.83
2023-03-08T18:52:39.356Z,12.43
2023-03-08T18:55:09.788Z,11.93
2023-03-08T18:57:39.172Z,12.00
2023-03-08T19:00:11.939Z,11.90
2023-03-08T19:02:41.833Z,11.80
2023-03-08T19:05:11.090Z,13.13
2023-03-08T19:07:41.064Z,13.33
2023-03-08T19:10:14.728Z,12.43
2023-03-08T19:12:43.851Z,12.40
2023-03-08T19:15:12.752Z,11.83
2023-03-08T19:17:42.418Z,12.00
2023-03-08T19:20:12.757Z,11.60
2023-03-08T19:22:41.187Z,12.00
2023-03-08T19:25:10.280Z,12.03
2023-03-08T19:27:38.721Z,12.30
2023-03-08T19:30:08.636Z,13.37
2023-03-08T19:32:37.033Z,12.30
2023-03-08T19:35:07.938Z,12.57
2023-03-08T19:37:36.739Z,12.30
2023-03-08T19:40:09.369Z,13.07
2023-03-08T19:42:37.770Z,12.13
2023-03-08T19:45:07.458Z,12.23
2023-03-08T19:47:35.790Z,11.83
2023-03-08T19:50:04.264Z,11.70
2023-03-08T19:52:33.983Z,11.77
2023-03-08T19:55:03.585Z,11.80
2023-03-08T19:57:31.970Z,11.07
2023-03-08T20:00:01.323Z,11.30
2023-03-08T20:02:42.398Z,11.50
2023-03-08T20:05:11.133Z,11.57
2023-03-08T20:07:40.784Z,11.30
2023-03-08T20:10:17.268Z,11.20
2023-03-08T20:12:47.166Z,11.30
2023-03-08T20:15:15.749Z,11.77
2023-03-08T20:17:44.052Z,12.00
2023-03-08T20:20:14.110Z,11.60
2023-03-08T20:22:44.006Z,11.40
2023-03-08T20:25:12.970Z,11.10
2023-03-08T20:27:42.514Z,11.20
2023-03-08T20:30:13.452Z,11.13
2023-03-08T20:32:41.916Z,11.63
2023-03-08T20:35:14.989Z,11.50
2023-03-08T20:37:44.766Z,11.33
2023-03-08T20:40:16.660Z,11.13
2023-03-08T20:42:45.338Z,11.07
2023-03-08T20:45:14.259Z,11.00
2023-03-08T20:47:42.704Z,11.00
2023-03-08T20:50:12.926Z,10.77
2023-03-08T20:52:41.439Z,11.47
2023-03-08T20:55:11.864Z,10.97
2023-03-08T20:57:40.487Z,11.30
2023-03-08T21:00:11.136Z,11.43
2023-03-08T21:02:40.629Z,11.20
2023-03-08T21:05:10.140Z,11.50
2023-03-08T21:07:38.697Z,11.10
2023-03-08T21:10:08.074Z,10.90
2023-03-08T21:12:39.189Z,11.30
2023-03-08T21:15:09.773Z,12.37
2023-03-08T21:17:40.014Z,10.97
2023-03-08T21:20:11.327Z,10.90
2023-03-08T21:22:39.724Z,11.00
2023-03-08T21:25:08.936Z,13.30
2023-03-08T21:27:39.026Z,11.67
2023-03-08T21:30:09.894Z,11.33
2023-03-08T21:32:38.526Z,11.83
2023-03-08T21:35:08.086Z,11.40
2023-03-08T21:37:37.980Z,11.60
2023-03-08T21:40:08.256Z,11.37
2023-03-08T21:42:38.194Z,11.20
2023-03-08T21:45:08.021Z,11.40
2023-03-08T21:47:36.764Z,11.23
2023-03-08T21:50:06.805Z,11.47
2023-03-08T21:52:35.924Z,11.47
2023-03-08T21:55:05.636Z,10.90
2023-03-08T21:57:35.223Z,11.57
2023-03-08T22:00:06.873Z,11.10
2023-03-08T22:02:44.995Z,11.53
2023-03-08T22:05:14.334Z,10.90
2023-03-08T22:07:43.767Z,11.27
2023-03-08T22:10:14.503Z,11.33
2023-03-08T22:12:43.490Z,11.73
2023-03-08T22:15:15.918Z,11.47
2023-03-08T22:17:44.912Z,10.97
2023-03-08T22:20:14.019Z,11.80
2023-03-08T22:22:44.162Z,10.93
2023-03-08T22:25:13.982Z,11.53
2023-03-08T22:27:43.535Z,11.17
2023-03-08T22:30:15.682Z,10.53
2023-03-08T22:32:44.750Z,10.83
2023-03-08T22:35:15.480Z,11.00
2023-03-08T22:37:43.971Z,11.27
2023-03-08T22:40:14.162Z,11.00
2023-03-08T22:42:42.684Z,10.87
2023-03-08T22:45:14.157Z,10.83
2023-03-08T22:47:42.650Z,10.47
2023-03-08T22:50:13.338Z,10.80
2023-03-08T22:52:41.644Z,10.70
2023-03-08T22:55:11.420Z,10.80
2023-03-08T22:57:40.181Z,10.87
2023-03-08T23:00:14.459Z,10.90
2023-03-08T23:02:46.080Z,10.93
2023-03-08T23:05:16.386Z,10.90
2023-03-08T23:07:44.800Z,10.20
2023-03-08T23:10:15.547Z,10.83
2023-03-08T23:12:44.226Z,10.83
2023-03-08T23:15:13.388Z,10.43
2023-03-08T23:17:43.210Z,10.33
2023-03-08T23:20:13.652Z,10.63
2023-03-08T23:22:44.663Z,10.70
2023-03-08T23:25:13.550Z,11.57
2023-03-08T23:27:42.293Z,10.60
2023-03-08T23:30:15.913Z,10.33
2023-03-08T23:32:45.827Z,10.40
2023-03-08T23:35:14.236Z,11.23
2023-03-08T23:37:42.596Z,11.03
2023-03-08T23:40:14.269Z,10.57
2023-03-08T23:42:43.047Z,10.60
2023-03-08T23:45:11.963Z,10.70
2023-03-08T23:47:40.303Z,10.27
2023-03-08T23:50:11.927Z,10.20
2023-03-08T23:52:40.338Z,10.53
2023-03-08T23:55:09.635Z,10.97
2023-03-08T23:57:37.934Z,10.73
